sensor_id;sensor_type;location;lat;lon;timestamp;P1;durP1;ratioP1;P2;durP2;ratioP2
77868;SDS011;67231;59.144;37.934;2023-02-28T00:01:13;8.95;;;3.80;;
77868;SDS011;67231;59.144;37.934;2023-02-28T00:03:41;7.72;;;3.45;;
77868;SDS011;67231;59.144;37.934;2023-02-28T00:06:07;7.97;;;3.38;;
77868;SDS011;67231;59.144;37.934;2023-02-28T00:08:35;8.45;;;3.55;;
77868;SDS011;67231;59.144;37.934;2023-02-28T00:11:03;9.50;;;3.33;;
77868;SDS011;67231;59.144;37.934;2023-02-28T00:13:30;7.82;;;3.45;;
77868;SDS011;67231;59.144;37.934;2023-02-28T00:16:00;8.85;;;3.63;;
77868;SDS011;67231;59.144;37.934;2023-02-28T00:18:27;7.20;;;3.60;;
77868;SDS011;67231;59.144;37.934;2023-02-28T00:20:53;6.82;;;3.03;;
77868;SDS011;67231;59.144;37.934;2023-02-28T00:23:19;7.57;;;3.10;;
77868;SDS011;67231;59.144;37.934;2023-02-28T00:25:45;9.52;;;4.30;;
77868;SDS011;67231;59.144;37.934;2023-02-28T00:28:12;6.72;;;2.55;;
77868;SDS011;67231;59.144;37.934;2023-02-28T00:30:38;6.60;;;2.95;;
77868;SDS011;67231;59.144;37.934;2023-02-28T00:33:04;9.32;;;3.30;;
77868;SDS011;67231;59.144;37.934;2023-02-28T00:35:30;7.88;;;3.22;;
77868;SDS011;67231;59.144;37.934;2023-02-28T00:37:56;13.15;;;2.95;;
77868;SDS011;67231;59.144;37.934;2023-02-28T00:40:23;9.18;;;3.10;;
77868;SDS011;67231;59.144;37.934;2023-02-28T00:42:49;8.27;;;3.38;;
77868;SDS011;67231;59.144;37.934;2023-02-28T00:45:15;13.18;;;3.72;;
77868;SDS011;67231;59.144;37.934;2023-02-28T00:47:41;9.13;;;3.30;;
77868;SDS011;67231;59.144;37.934;2023-02-28T00:50:08;12.68;;;4.47;;
77868;SDS011;67231;59.144;37.934;2023-02-28T00:52:36;10.30;;;3.53;;
77868;SDS011;67231;59.144;37.934;2023-02-28T00:55:02;13.57;;;4.00;;
77868;SDS011;67231;59.144;37.934;2023-02-28T00:57:29;9.57;;;3.20;;
77868;SDS011;67231;59.144;37.934;2023-02-28T00:59:55;7.88;;;2.80;;
77868;SDS011;67231;59.144;37.934;2023-02-28T01:02:21;12.88;;;4.00;;
77868;SDS011;67231;59.144;37.934;2023-02-28T01:04:48;7.05;;;3.30;;
77868;SDS011;67231;59.144;37.934;2023-02-28T01:07:15;8.70;;;3.90;;
77868;SDS011;67231;59.144;37.934;2023-02-28T01:09:41;10.68;;;3.85;;
77868;SDS011;67231;59.144;37.934;2023-02-28T01:12:08;8.43;;;2.95;;
77868;SDS011;67231;59.144;37.934;2023-02-28T01:14:35;13.75;;;3.78;;
77868;SDS011;67231;59.144;37.934;2023-02-28T01:17:01;13.82;;;3.70;;
77868;SDS011;67231;59.144;37.934;2023-02-28T01:19:28;12.27;;;4.78;;
77868;SDS011;67231;59.144;37.934;2023-02-28T01:21:54;15.93;;;3.17;;
77868;SDS011;67231;59.144;37.934;2023-02-28T01:24:20;13.73;;;4.47;;
77868;SDS011;67231;59.144;37.934;2023-02-28T01:26:46;12.88;;;5.65;;
77868;SDS011;67231;59.144;37.934;2023-02-28T01:29:12;13.43;;;5.07;;
77868;SDS011;67231;59.144;37.934;2023-02-28T01:31:38;13.45;;;4.40;;
77868;SDS011;67231;59.144;37.934;2023-02-28T01:34:07;18.13;;;5.13;;
77868;SDS011;67231;59.144;37.934;2023-02-28T01:36:33;17.08;;;5.60;;
77868;SDS011;67231;59.144;37.934;2023-02-28T01:39:00;14.20;;;4.72;;
77868;SDS011;67231;59.144;37.934;2023-02-28T01:41:27;10.63;;;3.80;;
77868;SDS011;67231;59.144;37.934;2023-02-28T01:46:22;18.60;;;5.72;;
77868;SDS011;67231;59.144;37.934;2023-02-28T01:48:53;12.85;;;4.18;;
77868;SDS011;67231;59.144;37.934;2023-02-28T01:51:27;17.85;;;5.38;;
77868;SDS011;67231;59.144;37.934;2023-02-28T01:53:59;10.70;;;4.43;;
77868;SDS011;67231;59.144;37.934;2023-02-28T01:56:32;12.02;;;4.00;;
77868;SDS011;67231;59.144;37.934;2023-02-28T01:59:01;16.67;;;5.82;;
77868;SDS011;67231;59.144;37.934;2023-02-28T02:01:28;13.82;;;5.32;;
77868;SDS011;67231;59.144;37.934;2023-02-28T02:03:57;13.05;;;4.97;;
77868;SDS011;67231;59.144;37.934;2023-02-28T02:06:45;11.00;;;5.15;;
77868;SDS011;67231;59.144;37.934;2023-02-28T02:09:13;12.73;;;4.30;;
77868;SDS011;67231;59.144;37.934;2023-02-28T02:11:43;16.10;;;4.55;;
77868;SDS011;67231;59.144;37.934;2023-02-28T02:31:27;15.00;;;3.78;;
77868;SDS011;67231;59.144;37.934;2023-02-28T02:39:44;16.65;;;5.57;;
77868;SDS011;67231;59.144;37.934;2023-02-28T02:45:40;16.15;;;4.25;;
77868;SDS011;67231;59.144;37.934;2023-02-28T02:48:15;12.52;;;4.07;;
77868;SDS011;67231;59.144;37.934;2023-02-28T02:50:47;7.85;;;3.58;;
77868;SDS011;67231;59.144;37.934;2023-02-28T02:53:17;10.77;;;4.18;;
77868;SDS011;67231;59.144;37.934;2023-02-28T02:55:47;13.35;;;4.60;;
77868;SDS011;67231;59.144;37.934;2023-02-28T02:58:24;10.65;;;4.63;;
77868;SDS011;67231;59.144;37.934;2023-02-28T03:00:56;17.00;;;4.93;;
77868;SDS011;67231;59.144;37.934;2023-02-28T03:03:26;12.27;;;4.13;;
77868;SDS011;67231;59.144;37.934;2023-02-28T03:05:56;13.98;;;4.97;;
77868;SDS011;67231;59.144;37.934;2023-02-28T03:08:24;15.80;;;4.28;;
77868;SDS011;67231;59.144;37.934;2023-02-28T03:10:51;18.20;;;5.88;;
77868;SDS011;67231;59.144;37.934;2023-02-28T03:16:00;10.55;;;4.82;;
77868;SDS011;67231;59.144;37.934;2023-02-28T03:18:47;11.52;;;3.50;;
77868;SDS011;67231;59.144;37.934;2023-02-28T03:21:36;11.07;;;3.85;;
77868;SDS011;67231;59.144;37.934;2023-02-28T03:24:19;9.40;;;4.05;;
77868;SDS011;67231;59.144;37.934;2023-02-28T03:26:53;7.95;;;3.22;;
77868;SDS011;67231;59.144;37.934;2023-02-28T03:35:01;8.73;;;3.75;;
77868;SDS011;67231;59.144;37.934;2023-02-28T03:37:33;6.20;;;3.03;;
77868;SDS011;67231;59.144;37.934;2023-02-28T03:42:35;10.65;;;3.65;;
77868;SDS011;67231;59.144;37.934;2023-02-28T03:45:13;12.23;;;3.38;;
77868;SDS011;67231;59.144;37.934;2023-02-28T03:50:24;8.20;;;3.50;;
77868;SDS011;67231;59.144;37.934;2023-02-28T03:52:59;7.07;;;2.78;;
77868;SDS011;67231;59.144;37.934;2023-02-28T03:55:57;11.50;;;3.58;;
77868;SDS011;67231;59.144;37.934;2023-02-28T03:58:32;10.02;;;3.47;;
77868;SDS011;67231;59.144;37.934;2023-02-28T04:01:12;11.15;;;3.83;;
77868;SDS011;67231;59.144;37.934;2023-02-28T04:03:44;10.20;;;3.38;;
77868;SDS011;67231;59.144;37.934;2023-02-28T04:06:17;7.35;;;3.00;;
77868;SDS011;67231;59.144;37.934;2023-02-28T04:08:45;7.47;;;3.38;;
77868;SDS011;67231;59.144;37.934;2023-02-28T04:14:03;7.72;;;2.92;;
77868;SDS011;67231;59.144;37.934;2023-02-28T04:16:30;10.05;;;3.67;;
77868;SDS011;67231;59.144;37.934;2023-02-28T04:18:58;6.93;;;2.78;;
77868;SDS011;67231;59.144;37.934;2023-02-28T04:21:29;9.98;;;4.25;;
77868;SDS011;67231;59.144;37.934;2023-02-28T04:24:00;11.02;;;4.22;;
77868;SDS011;67231;59.144;37.934;2023-02-28T04:26:29;13.50;;;3.63;;
77868;SDS011;67231;59.144;37.934;2023-02-28T04:28:56;10.07;;;3.42;;
77868;SDS011;67231;59.144;37.934;2023-02-28T04:31:23;6.70;;;3.05;;
77868;SDS011;67231;59.144;37.934;2023-02-28T04:33:49;9.13;;;3.08;;
77868;SDS011;67231;59.144;37.934;2023-02-28T04:36:15;9.88;;;3.78;;
77868;SDS011;67231;59.144;37.934;2023-02-28T04:38:43;7.68;;;2.75;;
77868;SDS011;67231;59.144;37.934;2023-02-28T04:41:11;11.68;;;2.97;;
77868;SDS011;67231;59.144;37.934;2023-02-28T04:43:38;6.40;;;2.65;;
77868;SDS011;67231;59.144;37.934;2023-02-28T04:46:04;7.57;;;2.80;;
77868;SDS011;67231;59.144;37.934;2023-02-28T04:48:32;6.68;;;2.75;;
77868;SDS011;67231;59.144;37.934;2023-02-28T04:51:00;14.38;;;3.25;;
77868;SDS011;67231;59.144;37.934;2023-02-28T04:53:34;6.28;;;2.60;;
77868;SDS011;67231;59.144;37.934;2023-02-28T04:56:00;7.30;;;2.75;;
77868;SDS011;67231;59.144;37.934;2023-02-28T04:58:27;5.72;;;2.10;;
77868;SDS011;67231;59.144;37.934;2023-02-28T05:00:53;7.95;;;2.20;;
77868;SDS011;67231;59.144;37.934;2023-02-28T05:03:26;7.20;;;2.72;;
77868;SDS011;67231;59.144;37.934;2023-02-28T05:05:52;6.43;;;2.53;;
77868;SDS011;67231;59.144;37.934;2023-02-28T05:08:18;7.47;;;3.28;;
77868;SDS011;67231;59.144;37.934;2023-02-28T05:10:44;11.70;;;3.40;;
77868;SDS011;67231;59.144;37.934;2023-02-28T05:13:14;10.95;;;3.53;;
77868;SDS011;67231;59.144;37.934;2023-02-28T05:15:40;8.20;;;3.45;;
77868;SDS011;67231;59.144;37.934;2023-02-28T05:18:07;17.05;;;5.22;;
77868;SDS011;67231;59.144;37.934;2023-02-28T05:20:34;25.75;;;9.20;;
77868;SDS011;67231;59.144;37.934;2023-02-28T05:23:00;24.85;;;9.70;;
77868;SDS011;67231;59.144;37.934;2023-02-28T05:25:27;19.98;;;6.28;;
77868;SDS011;67231;59.144;37.934;2023-02-28T05:27:53;18.42;;;8.30;;
77868;SDS011;67231;59.144;37.934;2023-02-28T05:30:19;17.10;;;8.18;;
77868;SDS011;67231;59.144;37.934;2023-02-28T05:32:48;20.33;;;9.25;;
77868;SDS011;67231;59.144;37.934;2023-02-28T05:35:16;15.75;;;8.80;;
77868;SDS011;67231;59.144;37.934;2023-02-28T05:37:42;29.00;;;9.75;;
77868;SDS011;67231;59.144;37.934;2023-02-28T05:40:08;13.85;;;4.72;;
77868;SDS011;67231;59.144;37.934;2023-02-28T05:42:38;20.00;;;6.97;;
77868;SDS011;67231;59.144;37.934;2023-02-28T05:45:05;13.52;;;6.07;;
77868;SDS011;67231;59.144;37.934;2023-02-28T05:47:32;14.98;;;6.60;;
77868;SDS011;67231;59.144;37.934;2023-02-28T05:49:58;14.57;;;5.47;;
77868;SDS011;67231;59.144;37.934;2023-02-28T05:52:25;13.68;;;5.43;;
77868;SDS011;67231;59.144;37.934;2023-02-28T05:54:51;13.68;;;5.72;;
77868;SDS011;67231;59.144;37.934;2023-02-28T05:57:17;15.55;;;4.85;;
77868;SDS011;67231;59.144;37.934;2023-02-28T05:59:44;13.00;;;5.40;;
77868;SDS011;67231;59.144;37.934;2023-02-28T06:02:14;10.15;;;3.97;;
77868;SDS011;67231;59.144;37.934;2023-02-28T06:04:41;15.32;;;4.07;;
77868;SDS011;67231;59.144;37.934;2023-02-28T06:07:08;9.32;;;3.90;;
77868;SDS011;67231;59.144;37.934;2023-02-28T06:09:35;17.00;;;4.30;;
77868;SDS011;67231;59.144;37.934;2023-02-28T06:12:03;13.48;;;3.53;;
77868;SDS011;67231;59.144;37.934;2023-02-28T06:14:35;8.95;;;2.75;;
77868;SDS011;67231;59.144;37.934;2023-02-28T06:17:03;12.63;;;3.40;;
77868;SDS011;67231;59.144;37.934;2023-02-28T06:19:29;12.70;;;4.20;;
77868;SDS011;67231;59.144;37.934;2023-02-28T06:21:56;10.55;;;3.53;;
77868;SDS011;67231;59.144;37.934;2023-02-28T06:24:23;17.30;;;4.03;;
77868;SDS011;67231;59.144;37.934;2023-02-28T06:26:53;11.57;;;3.50;;
77868;SDS011;67231;59.144;37.934;2023-02-28T06:29:19;13.43;;;3.58;;
77868;SDS011;67231;59.144;37.934;2023-02-28T06:31:45;14.63;;;3.97;;
77868;SDS011;67231;59.144;37.934;2023-02-28T06:34:12;18.85;;;3.88;;
77868;SDS011;67231;59.144;37.934;2023-02-28T06:36:39;9.65;;;3.10;;
77868;SDS011;67231;59.144;37.934;2023-02-28T06:39:07;13.48;;;3.97;;
77868;SDS011;67231;59.144;37.934;2023-02-28T06:41:34;11.50;;;3.53;;
77868;SDS011;67231;59.144;37.934;2023-02-28T06:44:36;13.13;;;3.60;;
77868;SDS011;67231;59.144;37.934;2023-02-28T06:47:01;16.85;;;4.70;;
77868;SDS011;67231;59.144;37.934;2023-02-28T06:49:32;12.32;;;3.92;;
77868;SDS011;67231;59.144;37.934;2023-02-28T06:52:00;19.10;;;4.80;;
77868;SDS011;67231;59.144;37.934;2023-02-28T06:54:27;20.30;;;5.95;;
77868;SDS011;67231;59.144;37.934;2023-02-28T06:56:53;22.90;;;8.07;;
77868;SDS011;67231;59.144;37.934;2023-02-28T06:59:22;33.03;;;11.48;;
77868;SDS011;67231;59.144;37.934;2023-02-28T07:01:48;33.75;;;12.50;;
77868;SDS011;67231;59.144;37.934;2023-02-28T07:04:14;26.42;;;13.43;;
77868;SDS011;67231;59.144;37.934;2023-02-28T07:06:40;28.75;;;11.20;;
77868;SDS011;67231;59.144;37.934;2023-02-28T07:09:07;38.35;;;14.07;;
77868;SDS011;67231;59.144;37.934;2023-02-28T07:11:33;32.05;;;14.77;;
77868;SDS011;67231;59.144;37.934;2023-02-28T07:13:59;44.47;;;20.52;;
77868;SDS011;67231;59.144;37.934;2023-02-28T07:16:27;77.80;;;29.60;;
77868;SDS011;67231;59.144;37.934;2023-02-28T07:18:53;59.80;;;26.23;;
77868;SDS011;67231;59.144;37.934;2023-02-28T07:21:20;64.03;;;26.27;;
77868;SDS011;67231;59.144;37.934;2023-02-28T07:23:47;65.13;;;28.83;;
77868;SDS011;67231;59.144;37.934;2023-02-28T07:26:14;86.22;;;33.50;;
77868;SDS011;67231;59.144;37.934;2023-02-28T07:28:43;77.50;;;30.25;;
77868;SDS011;67231;59.144;37.934;2023-02-28T07:31:10;111.00;;;36.05;;
77868;SDS011;67231;59.144;37.934;2023-02-28T07:33:37;85.50;;;27.55;;
77868;SDS011;67231;59.144;37.934;2023-02-28T07:36:05;85.00;;;29.55;;
77868;SDS011;67231;59.144;37.934;2023-02-28T07:38:33;44.58;;;17.35;;
77868;SDS011;67231;59.144;37.934;2023-02-28T07:41:01;49.20;;;17.33;;
77868;SDS011;67231;59.144;37.934;2023-02-28T07:43:30;50.75;;;17.80;;
77868;SDS011;67231;59.144;37.934;2023-02-28T07:46:04;73.18;;;22.52;;
77868;SDS011;67231;59.144;37.934;2023-02-28T07:48:32;70.40;;;20.45;;
77868;SDS011;67231;59.144;37.934;2023-02-28T07:50:58;91.38;;;27.17;;
77868;SDS011;67231;59.144;37.934;2023-02-28T07:53:25;51.63;;;16.42;;
77868;SDS011;67231;59.144;37.934;2023-02-28T07:55:59;34.38;;;12.75;;
77868;SDS011;67231;59.144;37.934;2023-02-28T07:58:26;46.72;;;15.80;;
77868;SDS011;67231;59.144;37.934;2023-02-28T08:00:53;23.80;;;9.77;;
77868;SDS011;67231;59.144;37.934;2023-02-28T08:03:20;21.20;;;7.30;;
77868;SDS011;67231;59.144;37.934;2023-02-28T08:05:48;24.23;;;7.68;;
77868;SDS011;67231;59.144;37.934;2023-02-28T08:08:15;29.55;;;8.88;;
77868;SDS011;67231;59.144;37.934;2023-02-28T08:10:42;18.90;;;5.95;;
77868;SDS011;67231;59.144;37.934;2023-02-28T08:13:09;9.07;;;3.75;;
77868;SDS011;67231;59.144;37.934;2023-02-28T08:15:36;11.15;;;4.00;;
77868;SDS011;67231;59.144;37.934;2023-02-28T08:18:02;12.38;;;4.90;;
77868;SDS011;67231;59.144;37.934;2023-02-28T08:20:28;7.55;;;4.30;;
77868;SDS011;67231;59.144;37.934;2023-02-28T08:22:54;5.45;;;2.92;;
77868;SDS011;67231;59.144;37.934;2023-02-28T08:25:20;7.28;;;3.05;;
77868;SDS011;67231;59.144;37.934;2023-02-28T08:27:46;6.65;;;3.30;;
77868;SDS011;67231;59.144;37.934;2023-02-28T08:30:13;3.90;;;2.22;;
77868;SDS011;67231;59.144;37.934;2023-02-28T08:32:40;5.07;;;2.40;;
77868;SDS011;67231;59.144;37.934;2023-02-28T08:35:06;6.93;;;2.90;;
77868;SDS011;67231;59.144;37.934;2023-02-28T08:37:35;8.18;;;4.13;;
77868;SDS011;67231;59.144;37.934;2023-02-28T08:40:01;4.40;;;2.13;;
77868;SDS011;67231;59.144;37.934;2023-02-28T08:42:29;6.43;;;2.70;;
77868;SDS011;67231;59.144;37.934;2023-02-28T08:44:55;3.67;;;2.00;;
77868;SDS011;67231;59.144;37.934;2023-02-28T08:47:22;5.97;;;2.30;;
77868;SDS011;67231;59.144;37.934;2023-02-28T08:49:48;5.55;;;3.85;;
77868;SDS011;67231;59.144;37.934;2023-02-28T08:52:14;4.63;;;2.78;;
77868;SDS011;67231;59.144;37.934;2023-02-28T08:54:40;5.00;;;2.33;;
77868;SDS011;67231;59.144;37.934;2023-02-28T08:57:07;9.38;;;3.67;;
77868;SDS011;67231;59.144;37.934;2023-02-28T08:59:33;4.38;;;2.22;;
77868;SDS011;67231;59.144;37.934;2023-02-28T09:01:59;6.07;;;3.63;;
77868;SDS011;67231;59.144;37.934;2023-02-28T09:04:25;6.68;;;3.38;;
77868;SDS011;67231;59.144;37.934;2023-02-28T09:06:51;2.85;;;1.33;;
77868;SDS011;67231;59.144;37.934;2023-02-28T17:54:29;7.75;;;3.05;;
77868;SDS011;67231;59.144;37.934;2023-02-28T17:57:01;8.25;;;2.63;;
77868;SDS011;67231;59.144;37.934;2023-02-28T17:59:32;13.20;;;2.67;;
77868;SDS011;67231;59.144;37.934;2023-02-28T18:02:06;12.35;;;4.70;;
77868;SDS011;67231;59.144;37.934;2023-02-28T18:04:34;9.90;;;3.70;;
77868;SDS011;67231;59.144;37.934;2023-02-28T18:07:06;8.90;;;3.30;;
77868;SDS011;67231;59.144;37.934;2023-02-28T18:09:41;10.15;;;3.42;;
77868;SDS011;67231;59.144;37.934;2023-02-28T18:12:11;10.60;;;3.05;;
77868;SDS011;67231;59.144;37.934;2023-02-28T18:14:41;5.55;;;2.50;;
77868;SDS011;67231;59.144;37.934;2023-02-28T18:17:11;12.48;;;2.70;;
77868;SDS011;67231;59.144;37.934;2023-02-28T18:19:40;8.02;;;2.58;;
77868;SDS011;67231;59.144;37.934;2023-02-28T18:22:13;9.85;;;2.85;;
77868;SDS011;67231;59.144;37.934;2023-02-28T18:24:41;7.47;;;3.17;;
77868;SDS011;67231;59.144;37.934;2023-02-28T18:27:09;11.77;;;3.60;;
77868;SDS011;67231;59.144;37.934;2023-02-28T18:29:37;6.18;;;2.22;;
77868;SDS011;67231;59.144;37.934;2023-02-28T18:32:10;7.40;;;3.13;;
77868;SDS011;67231;59.144;37.934;2023-02-28T18:34:36;8.65;;;2.58;;
77868;SDS011;67231;59.144;37.934;2023-02-28T18:37:05;8.35;;;2.80;;
77868;SDS011;67231;59.144;37.934;2023-02-28T18:39:32;7.43;;;2.83;;
77868;SDS011;67231;59.144;37.934;2023-02-28T18:41:58;14.20;;;3.70;;
77868;SDS011;67231;59.144;37.934;2023-02-28T18:44:24;10.63;;;3.47;;
77868;SDS011;67231;59.144;37.934;2023-02-28T18:46:51;14.00;;;3.72;;
77868;SDS011;67231;59.144;37.934;2023-02-28T18:49:17;8.48;;;3.42;;
77868;SDS011;67231;59.144;37.934;2023-02-28T18:51:44;14.15;;;4.22;;
77868;SDS011;67231;59.144;37.934;2023-02-28T18:54:11;13.60;;;3.20;;
77868;SDS011;67231;59.144;37.934;2023-02-28T18:56:38;12.00;;;3.20;;
77868;SDS011;67231;59.144;37.934;2023-02-28T18:59:05;14.60;;;3.90;;
77868;SDS011;67231;59.144;37.934;2023-02-28T19:01:31;15.52;;;3.67;;
77868;SDS011;67231;59.144;37.934;2023-02-28T19:03:59;14.38;;;3.97;;
77868;SDS011;67231;59.144;37.934;2023-02-28T19:06:26;14.15;;;4.07;;
77868;SDS011;67231;59.144;37.934;2023-02-28T19:08:54;9.30;;;2.70;;
77868;SDS011;67231;59.144;37.934;2023-02-28T19:11:22;10.85;;;3.15;;
77868;SDS011;67231;59.144;37.934;2023-02-28T19:13:49;12.00;;;3.17;;
77868;SDS011;67231;59.144;37.934;2023-02-28T19:16:17;10.70;;;3.47;;
77868;SDS011;67231;59.144;37.934;2023-02-28T19:18:45;8.98;;;2.83;;
77868;SDS011;67231;59.144;37.934;2023-02-28T19:21:12;10.63;;;3.38;;
77868;SDS011;67231;59.144;37.934;2023-02-28T19:23:40;15.88;;;4.00;;
77868;SDS011;67231;59.144;37.934;2023-02-28T19:26:08;11.52;;;3.30;;
77868;SDS011;67231;59.144;37.934;2023-02-28T19:28:35;10.77;;;2.55;;
77868;SDS011;67231;59.144;37.934;2023-02-28T19:31:04;11.77;;;3.60;;
77868;SDS011;67231;59.144;37.934;2023-02-28T19:33:47;12.35;;;2.75;;
77868;SDS011;67231;59.144;37.934;2023-02-28T19:36:14;10.13;;;3.00;;
77868;SDS011;67231;59.144;37.934;2023-02-28T19:38:41;7.60;;;2.10;;
77868;SDS011;67231;59.144;37.934;2023-02-28T19:41:09;10.77;;;2.78;;
77868;SDS011;67231;59.144;37.934;2023-02-28T19:43:37;8.52;;;3.10;;
77868;SDS011;67231;59.144;37.934;2023-02-28T19:46:03;14.15;;;4.32;;
77868;SDS011;67231;59.144;37.934;2023-02-28T19:48:31;10.63;;;4.10;;
77868;SDS011;67231;59.144;37.934;2023-02-28T19:50:58;12.52;;;3.30;;
77868;SDS011;67231;59.144;37.934;2023-02-28T19:53:28;9.30;;;3.05;;
77868;SDS011;67231;59.144;37.934;2023-02-28T19:55:55;8.77;;;2.35;;
77868;SDS011;67231;59.144;37.934;2023-02-28T19:58:22;6.65;;;2.58;;
77868;SDS011;67231;59.144;37.934;2023-02-28T20:00:48;8.70;;;2.92;;
77868;SDS011;67231;59.144;37.934;2023-02-28T20:03:15;13.27;;;3.83;;
77868;SDS011;67231;59.144;37.934;2023-02-28T20:05:43;14.40;;;4.15;;
77868;SDS011;67231;59.144;37.934;2023-02-28T20:08:11;11.77;;;4.15;;
77868;SDS011;67231;59.144;37.934;2023-02-28T20:10:38;11.80;;;3.10;;
77868;SDS011;67231;59.144;37.934;2023-02-28T20:13:04;8.32;;;2.80;;
77868;SDS011;67231;59.144;37.934;2023-02-28T20:15:31;7.65;;;2.15;;
77868;SDS011;67231;59.144;37.934;2023-02-28T20:17:57;10.02;;;2.63;;
77868;SDS011;67231;59.144;37.934;2023-02-28T20:20:25;10.20;;;3.22;;
77868;SDS011;67231;59.144;37.934;2023-02-28T20:22:52;11.80;;;3.50;;
77868;SDS011;67231;59.144;37.934;2023-02-28T20:25:18;10.65;;;3.35;;
77868;SDS011;67231;59.144;37.934;2023-02-28T20:27:45;13.05;;;3.58;;
77868;SDS011;67231;59.144;37.934;2023-02-28T20:30:11;8.07;;;2.42;;
77868;SDS011;67231;59.144;37.934;2023-02-28T20:32:38;12.68;;;3.40;;
77868;SDS011;67231;59.144;37.934;2023-02-28T20:35:05;10.30;;;3.17;;
77868;SDS011;67231;59.144;37.934;2023-02-28T20:37:33;11.43;;;3.58;;
77868;SDS011;67231;59.144;37.934;2023-02-28T20:39:59;10.23;;;2.63;;
77868;SDS011;67231;59.144;37.934;2023-02-28T20:42:26;10.40;;;3.13;;
77868;SDS011;67231;59.144;37.934;2023-02-28T20:44:52;6.70;;;2.38;;
77868;SDS011;67231;59.144;37.934;2023-02-28T20:47:18;4.35;;;1.42;;
77868;SDS011;67231;59.144;37.934;2023-02-28T20:49:44;8.60;;;2.50;;
77868;SDS011;67231;59.144;37.934;2023-02-28T20:52:11;4.95;;;1.75;;
77868;SDS011;67231;59.144;37.934;2023-02-28T20:54:37;5.72;;;2.03;;
77868;SDS011;67231;59.144;37.934;2023-02-28T20:57:03;5.05;;;1.65;;
77868;SDS011;67231;59.144;37.934;2023-02-28T20:59:30;4.40;;;1.75;;
77868;SDS011;67231;59.144;37.934;2023-02-28T21:01:56;4.90;;;1.90;;
77868;SDS011;67231;59.144;37.934;2023-02-28T21:04:22;5.50;;;2.05;;
77868;SDS011;67231;59.144;37.934;2023-02-28T21:06:49;10.20;;;2.25;;
77868;SDS011;67231;59.144;37.934;2023-02-28T21:09:17;6.72;;;2.13;;
77868;SDS011;67231;59.144;37.934;2023-02-28T21:11:44;5.80;;;1.75;;
77868;SDS011;67231;59.144;37.934;2023-02-28T21:14:14;5.32;;;1.67;;
77868;SDS011;67231;59.144;37.934;2023-02-28T21:16:42;6.72;;;1.80;;
77868;SDS011;67231;59.144;37.934;2023-02-28T21:19:09;4.20;;;1.75;;
77868;SDS011;67231;59.144;37.934;2023-02-28T21:21:37;7.75;;;1.90;;
77868;SDS011;67231;59.144;37.934;2023-02-28T21:24:13;3.40;;;1.20;;
77868;SDS011;67231;59.144;37.934;2023-02-28T21:26:41;3.08;;;1.30;;
77868;SDS011;67231;59.144;37.934;2023-02-28T21:29:09;3.30;;;1.20;;
77868;SDS011;67231;59.144;37.934;2023-02-28T21:31:37;4.38;;;1.42;;
77868;SDS011;67231;59.144;37.934;2023-02-28T21:34:05;7.35;;;2.15;;
77868;SDS011;67231;59.144;37.934;2023-02-28T21:36:37;5.38;;;2.00;;
77868;SDS011;67231;59.144;37.934;2023-02-28T21:39:07;9.32;;;2.33;;
77868;SDS011;67231;59.144;37.934;2023-02-28T21:41:34;9.80;;;2.78;;
77868;SDS011;67231;59.144;37.934;2023-02-28T21:44:02;13.43;;;3.00;;
77868;SDS011;67231;59.144;37.934;2023-02-28T21:46:29;10.70;;;3.80;;
77868;SDS011;67231;59.144;37.934;2023-02-28T21:48:56;18.55;;;4.25;;
77868;SDS011;67231;59.144;37.934;2023-02-28T21:51:24;13.90;;;4.22;;
77868;SDS011;67231;59.144;37.934;2023-02-28T21:53:53;16.33;;;4.68;;
77868;SDS011;67231;59.144;37.934;2023-02-28T21:56:20;15.68;;;4.32;;
77868;SDS011;67231;59.144;37.934;2023-02-28T21:58:49;11.02;;;3.58;;
77868;SDS011;67231;59.144;37.934;2023-02-28T22:01:17;11.57;;;3.80;;
77868;SDS011;67231;59.144;37.934;2023-02-28T22:03:45;8.95;;;3.22;;
77868;SDS011;67231;59.144;37.934;2023-02-28T22:06:17;14.40;;;4.32;;
77868;SDS011;67231;59.144;37.934;2023-02-28T22:08:47;9.60;;;3.35;;
77868;SDS011;67231;59.144;37.934;2023-02-28T22:11:19;10.02;;;3.30;;
77868;SDS011;67231;59.144;37.934;2023-02-28T22:13:46;4.30;;;2.00;;
77868;SDS011;67231;59.144;37.934;2023-02-28T22:16:17;4.70;;;2.20;;
77868;SDS011;67231;59.144;37.934;2023-02-28T22:18:44;5.88;;;1.80;;
77868;SDS011;67231;59.144;37.934;2023-02-28T22:21:12;5.72;;;1.90;;
77868;SDS011;67231;59.144;37.934;2023-02-28T22:23:39;4.22;;;1.70;;
77868;SDS011;67231;59.144;37.934;2023-02-28T22:26:07;6.63;;;2.00;;
77868;SDS011;67231;59.144;37.934;2023-02-28T22:28:35;7.93;;;2.45;;
77868;SDS011;67231;59.144;37.934;2023-02-28T22:33:49;5.35;;;2.00;;
77868;SDS011;67231;59.144;37.934;2023-02-28T22:36:18;5.55;;;2.20;;
77868;SDS011;67231;59.144;37.934;2023-02-28T22:38:46;4.93;;;1.63;;
77868;SDS011;67231;59.144;37.934;2023-02-28T22:41:16;7.13;;;2.38;;
77868;SDS011;67231;59.144;37.934;2023-02-28T22:43:44;3.20;;;1.27;;
77868;SDS011;67231;59.144;37.934;2023-02-28T22:46:15;6.75;;;2.00;;
77868;SDS011;67231;59.144;37.934;2023-02-28T22:48:41;3.90;;;1.45;;
77868;SDS011;67231;59.144;37.934;2023-02-28T22:51:09;3.30;;;1.48;;
77868;SDS011;67231;59.144;37.934;2023-02-28T22:53:38;4.25;;;1.63;;
77868;SDS011;67231;59.144;37.934;2023-02-28T22:56:04;5.10;;;1.60;;
77868;SDS011;67231;59.144;37.934;2023-02-28T22:58:31;7.25;;;2.20;;
77868;SDS011;67231;59.144;37.934;2023-02-28T23:01:08;9.80;;;1.88;;
77868;SDS011;67231;59.144;37.934;2023-02-28T23:03:40;7.25;;;1.98;;
77868;SDS011;67231;59.144;37.934;2023-02-28T23:06:11;3.42;;;1.40;;
77868;SDS011;67231;59.144;37.934;2023-02-28T23:08:39;3.13;;;1.40;;
77868;SDS011;67231;59.144;37.934;2023-02-28T23:11:06;6.68;;;2.05;;
77868;SDS011;67231;59.144;37.934;2023-02-28T23:13:32;7.00;;;1.92;;
77868;SDS011;67231;59.144;37.934;2023-02-28T23:15:58;4.95;;;2.50;;
77868;SDS011;67231;59.144;37.934;2023-02-28T23:18:24;7.03;;;2.45;;
77868;SDS011;67231;59.144;37.934;2023-02-28T23:20:50;3.70;;;1.80;;
77868;SDS011;67231;59.144;37.934;2023-02-28T23:23:16;8.20;;;2.47;;
77868;SDS011;67231;59.144;37.934;2023-02-28T23:25:42;7.63;;;2.10;;
77868;SDS011;67231;59.144;37.934;2023-02-28T23:28:08;5.18;;;1.90;;
77868;SDS011;67231;59.144;37.934;2023-02-28T23:30:35;6.32;;;2.33;;
77868;SDS011;67231;59.144;37.934;2023-02-28T23:33:04;4.38;;;1.70;;
77868;SDS011;67231;59.144;37.934;2023-02-28T23:35:31;4.88;;;1.63;;
77868;SDS011;67231;59.144;37.934;2023-02-28T23:37:58;5.47;;;1.70;;
77868;SDS011;67231;59.144;37.934;2023-02-28T23:40:25;7.80;;;1.83;;
77868;SDS011;67231;59.144;37.934;2023-02-28T23:42:51;4.80;;;1.67;;
77868;SDS011;67231;59.144;37.934;2023-02-28T23:45:18;6.45;;;2.15;;
77868;SDS011;67231;59.144;37.934;2023-02-28T23:47:44;6.45;;;2.45;;
77868;SDS011;67231;59.144;37.934;2023-02-28T23:50:10;5.00;;;2.17;;
77868;SDS011;67231;59.144;37.934;2023-02-28T23:52:36;5.28;;;2.03;;
77868;SDS011;67231;59.144;37.934;2023-02-28T23:55:03;7.80;;;2.60;;
77868;SDS011;67231;59.144;37.934;2023-02-28T23:57:29;7.65;;;2.80;;
77868;SDS011;67231;59.144;37.934;2023-02-28T23:59:56;6.60;;;2.30;;
